Time;durP1;ratioP1;P1;durP2;ratioP2;P2;SDS_P1;SDS_P2;PMS_P1;PMS_P2;Temp;Humidity;BMP_temperature;BMP_pressure;BME280_temperature;BME280_humidity;BME280_pressure;Samples;Min_cycle;Max_cycle;Signal;HPM_P1;HPM_P2
2021/07/25 00:00:54;;;;;;;19.42;15.63;;;27.10;88.00;;;;;;5029601;28;20064;-73
2021/07/25 00:03:19;;;;;;;19.25;17.17;;;27.00;90.00;;;;;;5035760;28;20454;-72
2021/07/25 00:05:45;;;;;;;20.30;17.33;;;27.00;91.10;;;;;;5035544;28;20086;-73
2021/07/25 00:08:13;;;;;;;20.48;17.25;;;27.00;92.30;;;;;;5048978;28;20087;-72
2021/07/25 00:10:41;;;;;;;21.50;18.63;;;27.00;92.90;;;;;;5045104;28;20037;-72
2021/07/25 00:13:07;;;;;;;20.85;18.65;;;27.00;94.70;;;;;;5035961;28;20038;-73
2021/07/25 00:15:33;;;;;;;22.00;19.60;;;26.80;96.50;;;;;;5033567;28;20045;-73
2021/07/25 00:17:59;;;;;;;20.60;18.70;;;26.80;97.10;;;;;;5036756;28;20306;-73
2021/07/25 00:20:24;;;;;;;21.83;19.65;;;26.80;99.10;;;;;;5048508;28;20067;-73
2021/07/25 00:22:50;;;;;;;23.33;20.92;;;26.80;99.30;;;;;;5028121;28;20399;-72
2021/07/25 00:25:18;;;;;;;23.20;20.77;;;26.60;99.90;;;;;;5034693;28;20048;-71
2021/07/25 00:27:45;;;;;;;25.73;20.60;;;26.60;99.90;;;;;;5059675;28;20041;-71
2021/07/25 00:30:12;;;;;;;25.00;21.60;;;26.60;99.90;;;;;;5036592;28;20132;-71
2021/07/25 00:32:38;;;;;;;23.67;21.30;;;26.70;99.90;;;;;;5033220;28;20064;-60
2021/07/25 00:35:04;;;;;;;23.73;21.23;;;26.60;99.90;;;;;;5033555;28;20037;-72
2021/07/25 00:37:30;;;;;;;23.80;21.33;;;26.70;99.90;;;;;;5030748;28;20115;-72
2021/07/25 00:39:56;;;;;;;25.33;22.70;;;26.70;99.90;;;;;;5031689;28;20116;-73
2021/07/25 00:42:21;;;;;;;25.58;22.77;;;26.70;99.90;;;;;;5040866;28;20084;-72
2021/07/25 00:44:47;;;;;;;24.70;22.08;;;26.70;99.90;;;;;;5040505;28;20484;-73
2021/07/25 00:47:13;;;;;;;24.73;21.95;;;26.70;99.90;;;;;;5036585;28;20487;-73
2021/07/25 00:49:38;;;;;;;26.95;23.95;;;26.70;99.90;;;;;;5022805;28;20034;-71
2021/07/25 00:52:06;;;;;;;24.40;21.55;;;26.70;99.90;;;;;;5028113;28;20116;-73
2021/07/25 00:54:31;;;;;;;23.05;20.42;;;26.80;99.90;;;;;;5022957;28;20029;-73
2021/07/25 00:56:57;;;;;;;27.85;22.67;;;26.80;99.90;;;;;;5061348;28;20074;-73
2021/07/25 00:59:23;;;;;;;21.58;19.05;;;26.70;99.90;;;;;;5027856;28;20091;-74
2021/07/25 01:01:49;;;;;;;23.27;20.83;;;26.80;99.90;;;;;;5059652;28;20127;-73
2021/07/25 01:04:24;;;;;;;25.42;22.83;;;26.60;99.90;;;;;;5047057;28;20029;-74
2021/07/25 01:06:52;;;;;;;25.42;22.70;;;26.60;99.90;;;;;;5048681;28;20055;-73
2021/07/25 01:09:27;;;;;;;24.00;21.70;;;26.50;99.90;;;;;;5014547;28;20048;-73
2021/07/25 01:12:01;;;;;;;26.25;23.38;;;26.50;99.90;;;;;;5034956;28;20064;-73
2021/07/25 01:14:32;;;;;;;25.88;21.38;;;26.40;99.90;;;;;;5040813;28;20566;-73
2021/07/25 01:17:26;;;;;;;25.33;22.63;;;26.50;99.90;;;;;;5028147;28;20073;-73
2021/07/25 01:19:56;;;;;;;25.08;21.20;;;26.40;99.90;;;;;;4995586;28;20042;-72
2021/07/25 01:22:21;;;;;;;24.52;22.02;;;26.50;99.90;;;;;;5025356;28;20041;-73
2021/07/25 01:24:47;;;;;;;23.40;21.02;;;26.50;99.90;;;;;;5028199;28;20050;-72
2021/07/25 01:27:30;;;;;;;24.45;21.90;;;26.60;99.90;;;;;;5059716;28;20429;-71
2021/07/25 01:29:59;;;;;;;26.13;21.95;;;26.50;99.90;;;;;;5040909;28;20048;-72
2021/07/25 01:32:26;;;;;;;26.90;22.27;;;26.40;99.90;;;;;;5046954;28;20048;-72
2021/07/25 01:34:56;;;;;;;25.17;22.55;;;26.50;99.90;;;;;;5045940;28;20092;-72
2021/07/25 01:37:24;;;;;;;23.52;21.02;;;26.50;99.90;;;;;;5048946;28;20095;-72
2021/07/25 01:39:50;;;;;;;25.88;23.20;;;26.50;99.90;;;;;;5048276;28;20506;-72
2021/07/25 01:42:44;;;;;;;23.63;21.30;;;26.50;99.90;;;;;;5043436;28;20033;-72
2021/07/25 01:45:11;;;;;;;26.20;22.13;;;26.50;99.90;;;;;;5034913;28;20033;-72
2021/07/25 01:47:37;;;;;;;24.42;21.35;;;26.50;99.90;;;;;;5022235;28;20080;-72
2021/07/25 01:50:04;;;;;;;23.33;20.92;;;26.50;99.90;;;;;;5025043;28;20060;-72
2021/07/25 01:52:31;;;;;;;25.92;20.98;;;26.40;99.90;;;;;;5047636;28;20041;-72
2021/07/25 01:54:56;;;;;;;24.73;22.23;;;26.40;99.90;;;;;;5040218;28;20052;-73
2021/07/25 01:57:22;;;;;;;22.23;19.92;;;26.40;99.90;;;;;;5044796;28;20486;-73
2021/07/25 01:59:48;;;;;;;23.05;20.55;;;26.40;99.90;;;;;;5033489;28;20033;-71
2021/07/25 02:02:13;;;;;;;21.42;19.48;;;26.40;99.90;;;;;;5049269;28;20136;-71
2021/07/25 02:04:39;;;;;;;21.58;19.25;;;26.50;99.90;;;;;;5046520;28;20048;-70
2021/07/25 02:07:05;;;;;;;19.90;17.60;;;26.50;99.90;;;;;;5036911;28;20115;-72
2021/07/25 02:09:38;;;;;;;20.27;17.98;;;26.40;99.90;;;;;;5037185;28;20058;-72
2021/07/25 02:12:04;;;;;;;21.52;19.13;;;26.40;99.90;;;;;;5039783;28;20497;-72
2021/07/25 02:14:31;;;;;;;24.60;19.27;;;26.30;99.90;;;;;;5035416;28;20476;-71
2021/07/25 02:16:57;;;;;;;20.48;18.17;;;26.40;99.90;;;;;;5029036;28;20049;-72
2021/07/25 02:19:23;;;;;;;20.60;18.58;;;26.40;99.90;;;;;;5025706;28;20061;-71
2021/07/25 02:21:49;;;;;;;22.42;19.27;;;26.30;99.90;;;;;;5020623;28;20080;-72
2021/07/25 02:24:14;;;;;;;22.27;17.98;;;26.30;99.90;;;;;;5029569;28;20491;-71
2021/07/25 02:26:40;;;;;;;19.90;17.92;;;26.40;99.90;;;;;;5016557;28;20048;-71
2021/07/25 02:29:05;;;;;;;20.83;18.63;;;26.30;99.90;;;;;;5032728;28;20095;-71
2021/07/25 02:31:32;;;;;;;21.83;19.63;;;26.30;99.90;;;;;;5025927;28;20060;-72
2021/07/25 02:34:06;;;;;;;21.88;19.55;;;26.30;99.90;;;;;;5018907;28;20033;-71
2021/07/25 02:36:31;;;;;;;21.27;18.90;;;26.30;99.90;;;;;;5027473;28;20037;-71
2021/07/25 02:38:57;;;;;;;20.05;17.58;;;26.30;99.90;;;;;;5030146;28;20045;-71
2021/07/25 02:41:23;;;;;;;21.02;18.83;;;26.30;99.90;;;;;;5032223;28;20034;-72
2021/07/25 02:43:48;;;;;;;19.90;17.98;;;26.20;99.90;;;;;;5036393;28;20030;-71
2021/07/25 02:46:38;;;;;;;22.95;19.70;;;26.30;99.90;;;;;;5046905;28;20025;-72
2021/07/25 02:49:04;;;;;;;21.45;19.17;;;26.30;99.90;;;;;;5029616;28;20041;-71
2021/07/25 02:51:36;;;;;;;22.77;18.10;;;26.20;99.90;;;;;;5035579;28;20052;-71
2021/07/25 02:54:01;;;;;;;22.80;19.10;;;26.30;99.90;;;;;;5037971;28;20025;-72
2021/07/25 02:56:27;;;;;;;21.85;19.65;;;26.30;99.90;;;;;;5054895;28;20036;-72
2021/07/25 02:58:52;;;;;;;21.67;18.90;;;26.30;99.90;;;;;;5032521;28;20427;-71
2021/07/25 03:01:18;;;;;;;23.50;20.08;;;26.20;99.90;;;;;;5036127;28;20042;-72
2021/07/25 03:03:44;;;;;;;22.13;18.92;;;26.20;99.90;;;;;;5046811;28;20041;-70
2021/07/25 03:06:09;;;;;;;23.00;20.25;;;26.20;99.90;;;;;;5044545;28;20045;-70
2021/07/25 03:08:35;;;;;;;24.83;19.55;;;26.20;99.90;;;;;;5037477;28;20140;-72
2021/07/25 03:11:05;;;;;;;22.30;19.90;;;26.10;99.90;;;;;;5051489;28;20094;-72
2021/07/25 03:13:31;;;;;;;23.23;20.83;;;26.20;99.90;;;;;;5043120;28;20103;-71
2021/07/25 03:16:01;;;;;;;21.10;18.42;;;26.00;99.90;;;;;;5033123;28;20037;-72
2021/07/25 03:18:27;;;;;;;26.30;20.67;;;26.10;99.90;;;;;;5032889;28;20392;-72
2021/07/25 03:21:26;;;;;;;21.33;19.15;;;26.10;99.90;;;;;;5025698;28;20041;-71
2021/07/25 03:23:52;;;;;;;22.00;19.67;;;26.00;99.90;;;;;;4984748;28;20084;-71
2021/07/25 03:26:17;;;;;;;24.85;20.30;;;26.00;99.90;;;;;;5017273;28;20644;-71
2021/07/25 03:28:46;;;;;;;24.30;19.40;;;26.00;99.90;;;;;;5015589;28;20057;-71
2021/07/25 03:31:21;;;;;;;22.17;19.77;;;26.00;99.90;;;;;;5012540;28;20041;-71
2021/07/25 03:33:46;;;;;;;23.77;20.77;;;26.00;99.90;;;;;;5019858;28;20449;-71
2021/07/25 03:36:12;;;;;;;21.30;19.05;;;26.00;99.90;;;;;;5017250;28;20033;-71
2021/07/25 03:38:38;;;;;;;20.33;18.20;;;26.00;99.90;;;;;;5049009;28;20141;-71
2021/07/25 03:41:04;;;;;;;25.77;20.15;;;26.00;99.90;;;;;;5014000;28;20088;-72
2021/07/25 03:43:30;;;;;;;24.38;19.67;;;25.90;99.90;;;;;;5029701;28;20067;-71
2021/07/25 03:45:57;;;;;;;21.38;19.15;;;25.90;99.90;;;;;;5020914;28;20033;-72
2021/07/25 03:48:23;;;;;;;22.90;18.88;;;26.00;99.90;;;;;;5017575;28;20136;-71
2021/07/25 03:50:48;;;;;;;19.98;17.70;;;26.00;99.90;;;;;;5016668;28;20406;-71
2021/07/25 03:53:14;;;;;;;22.40;20.02;;;25.90;99.90;;;;;;5024018;28;20041;-71
2021/07/25 03:55:44;;;;;;;21.45;19.23;;;25.90;99.90;;;;;;5022233;28;20046;-71
2021/07/25 03:58:10;;;;;;;20.85;18.75;;;25.90;99.90;;;;;;5038253;28;20457;-71
2021/07/25 04:00:37;;;;;;;21.20;18.90;;;26.00;99.90;;;;;;5022503;28;20033;-71
2021/07/25 04:03:03;;;;;;;22.27;19.50;;;25.90;99.90;;;;;;5019428;28;20046;-72
2021/07/25 04:05:29;;;;;;;19.52;17.05;;;25.90;99.90;;;;;;5024487;28;20045;-72
2021/07/25 04:07:55;;;;;;;18.65;16.73;;;25.90;99.90;;;;;;5023640;28;20491;-71
2021/07/25 04:10:21;;;;;;;19.58;17.38;;;25.90;99.90;;;;;;5046475;28;20029;-71
2021/07/25 04:12:47;;;;;;;20.20;17.20;;;25.80;99.90;;;;;;5014278;28;20093;-71
2021/07/25 04:15:13;;;;;;;20.77;17.75;;;25.80;99.90;;;;;;5020827;28;20050;-70
2021/07/25 04:17:39;;;;;;;22.45;18.00;;;26.00;99.90;;;;;;5017767;28;20487;-69
2021/07/25 04:20:06;;;;;;;20.63;18.27;;;25.90;99.90;;;;;;5023246;28;20053;-69
2021/07/25 04:22:36;;;;;;;20.88;18.05;;;25.90;99.90;;;;;;5025579;28;20038;-71
2021/07/25 04:25:03;;;;;;;21.23;18.92;;;25.90;99.90;;;;;;5029317;28;20046;-71
2021/07/25 04:27:29;;;;;;;22.08;18.95;;;26.00;99.90;;;;;;5024707;28;20041;-71
2021/07/25 04:29:56;;;;;;;20.13;18.02;;;25.90;99.90;;;;;;5032090;28;20414;-71
2021/07/25 04:32:22;;;;;;;21.80;18.45;;;25.80;99.90;;;;;;5024009;28;20099;-71
2021/07/25 04:34:48;;;;;;;21.23;18.90;;;25.90;99.90;;;;;;5023779;28;20056;-71
2021/07/25 04:37:28;;;;;;;22.80;19.23;;;25.80;99.90;;;;;;5024994;28;20049;-71
2021/07/25 04:39:55;;;;;;;22.48;19.33;;;25.80;99.90;;;;;;5044012;28;20045;-72
2021/07/25 04:43:05;;;;;;;20.60;18.48;;;25.80;99.90;;;;;;5034919;28;20045;-71
2021/07/25 04:45:49;;;;;;;20.02;17.85;;;25.80;99.90;;;;;;5014334;28;20068;-72
2021/07/25 04:48:46;;;;;;;22.88;19.10;;;26.00;99.90;;;;;;5000522;28;20064;-72
2021/07/25 04:51:12;;;;;;;20.40;17.65;;;25.80;99.90;;;;;;5031391;28;20124;-70
2021/07/25 04:53:41;;;;;;;20.48;18.42;;;25.80;99.90;;;;;;5032617;28;20037;-72
2021/07/25 04:56:10;;;;;;;26.33;19.30;;;25.80;99.90;;;;;;5035600;28;20038;-72
2021/07/25 04:58:41;;;;;;;19.77;17.67;;;25.90;99.90;;;;;;5041636;28;20064;-72
2021/07/25 05:01:10;;;;;;;20.77;18.58;;;25.90;99.90;;;;;;5031537;28;20099;-72
2021/07/25 05:03:36;;;;;;;20.98;17.13;;;25.90;99.90;;;;;;5040660;28;20041;-71
2021/07/25 05:06:02;;;;;;;20.77;18.58;;;25.80;99.90;;;;;;5036253;28;20037;-71
2021/07/25 05:08:28;;;;;;;21.30;18.42;;;25.80;99.90;;;;;;5044943;28;20044;-72
2021/07/25 05:11:02;;;;;;;20.27;18.17;;;25.90;99.90;;;;;;5035131;28;20504;-72
2021/07/25 05:13:35;;;;;;;19.95;17.75;;;25.80;99.90;;;;;;5027159;28;20056;-72
2021/07/25 05:16:06;;;;;;;20.33;18.02;;;26.00;99.90;;;;;;5028440;28;20056;-72
2021/07/25 05:18:45;;;;;;;23.15;20.65;;;25.90;99.90;;;;;;5038879;28;20542;-71
2021/07/25 05:21:23;;;;;;;22.38;18.75;;;25.90;99.90;;;;;;5051103;28;20144;-71
2021/07/25 05:23:53;;;;;;;20.70;17.65;;;26.00;99.90;;;;;;5044195;28;20048;-74
2021/07/25 05:26:26;;;;;;;23.50;18.77;;;26.00;99.90;;;;;;5037200;28;20112;-71
2021/07/25 05:29:07;;;;;;;19.73;17.67;;;25.90;99.90;;;;;;5033550;28;20041;-72
2021/07/25 05:31:34;;;;;;;22.10;18.20;;;25.90;99.90;;;;;;5034222;28;20045;-72
2021/07/25 05:34:02;;;;;;;18.80;16.90;;;25.90;99.90;;;;;;5032537;28;20043;-71
2021/07/25 05:36:28;;;;;;;20.50;18.50;;;26.00;99.90;;;;;;5041398;28;20116;-71
2021/07/25 05:38:54;;;;;;;18.52;16.45;;;26.00;99.90;;;;;;5027407;28;22677;-72
2021/07/25 05:41:20;;;;;;;19.15;17.08;;;26.20;99.90;;;;;;5035495;28;20041;-72
2021/07/25 05:43:46;;;;;;;21.05;18.17;;;26.40;99.90;;;;;;5028143;28;20049;-72
2021/07/25 05:46:11;;;;;;;20.40;17.83;;;26.30;99.90;;;;;;5038560;28;20403;-71
2021/07/25 05:48:37;;;;;;;19.60;17.60;;;26.20;99.90;;;;;;5032166;28;20057;-72
2021/07/25 05:51:03;;;;;;;18.13;16.38;;;26.30;99.90;;;;;;5043661;28;20061;-72
2021/07/25 05:53:30;;;;;;;20.13;17.90;;;26.50;99.90;;;;;;5034879;28;20115;-71
2021/07/25 05:55:55;;;;;;;19.08;17.05;;;26.40;99.90;;;;;;5040114;28;20036;-73
2021/07/25 05:58:21;;;;;;;19.27;16.50;;;26.30;99.90;;;;;;5029169;28;20041;-73
2021/07/25 06:00:47;;;;;;;18.15;16.25;;;26.30;99.90;;;;;;5036522;28;20101;-73
2021/07/25 06:03:12;;;;;;;20.85;17.02;;;26.30;99.90;;;;;;5045546;28;20040;-72
2021/07/25 06:05:41;;;;;;;19.70;17.30;;;26.20;99.90;;;;;;5034166;28;20041;-71
2021/07/25 06:08:08;;;;;;;20.33;18.08;;;26.20;99.90;;;;;;5032159;28;20041;-73
2021/07/25 06:10:35;;;;;;;19.55;17.52;;;26.20;99.90;;;;;;5033948;28;20049;-72
2021/07/25 06:13:05;;;;;;;20.83;18.58;;;26.20;99.90;;;;;;5030551;28;20120;-73
2021/07/25 06:15:32;;;;;;;20.17;17.95;;;26.20;99.90;;;;;;5023820;28;20044;-73
2021/07/25 06:18:01;;;;;;;19.05;17.15;;;26.20;99.90;;;;;;5040599;28;20039;-73
2021/07/25 06:20:28;;;;;;;21.88;19.08;;;26.10;99.90;;;;;;5052286;28;20024;-73
2021/07/25 06:22:55;;;;;;;21.83;18.13;;;26.10;99.90;;;;;;5032671;28;20052;-72
2021/07/25 06:25:30;;;;;;;20.80;18.23;;;26.20;99.90;;;;;;5048591;28;20072;-73
2021/07/25 06:28:02;;;;;;;19.98;17.88;;;26.20;99.90;;;;;;5033741;28;20060;-72
2021/07/25 06:30:28;;;;;;;22.45;18.33;;;26.30;99.90;;;;;;5029996;28;20048;-71
2021/07/25 06:32:59;;;;;;;21.23;19.02;;;26.30;99.90;;;;;;5033331;28;20068;-72
2021/07/25 06:35:36;;;;;;;23.58;20.95;;;26.30;99.90;;;;;;5030810;28;20033;-72
2021/07/25 06:38:07;;;;;;;22.50;19.25;;;26.30;99.90;;;;;;5026430;28;20041;-71
2021/07/25 06:40:34;;;;;;;23.45;19.48;;;26.30;99.90;;;;;;5022798;28;20049;-71
2021/07/25 06:43:01;;;;;;;23.88;20.17;;;26.30;99.90;;;;;;5053399;28;20037;-72
2021/07/25 06:45:28;;;;;;;21.73;19.40;;;26.20;99.90;;;;;;5039024;28;20410;-71
2021/07/25 06:47:54;;;;;;;22.25;19.95;;;26.30;99.90;;;;;;5039263;28;20070;-71
2021/07/25 06:50:21;;;;;;;22.88;20.50;;;26.10;99.90;;;;;;5044863;28;20109;-71
2021/07/25 06:52:48;;;;;;;24.27;20.92;;;26.10;99.90;;;;;;5042418;28;20033;-71
2021/07/25 06:55:14;;;;;;;21.13;18.65;;;26.20;99.90;;;;;;5028817;28;20505;-71
2021/07/25 06:57:40;;;;;;;23.90;19.88;;;26.40;99.90;;;;;;5037803;28;20567;-71
2021/07/25 07:00:07;;;;;;;25.13;22.05;;;26.30;99.90;;;;;;5050156;28;20029;-72
2021/07/25 07:02:56;;;;;;;25.25;22.13;;;26.00;99.90;;;;;;5046830;28;20408;-73
2021/07/25 07:05:22;;;;;;;26.98;22.88;;;26.00;99.90;;;;;;5004991;28;20052;-72
2021/07/25 07:07:50;;;;;;;23.52;20.63;;;26.10;99.90;;;;;;5042153;28;20545;-72
2021/07/25 07:10:20;;;;;;;23.67;21.20;;;26.30;99.90;;;;;;5043301;28;20425;-72
2021/07/25 07:12:47;;;;;;;24.38;21.80;;;26.50;99.90;;;;;;5015868;28;20124;-72
2021/07/25 07:15:14;;;;;;;25.48;22.85;;;26.40;99.90;;;;;;5042825;28;20041;-72
2021/07/25 07:17:40;;;;;;;25.65;22.42;;;26.40;99.90;;;;;;5037201;28;20058;-69
2021/07/25 07:20:07;;;;;;;25.13;22.52;;;26.40;99.90;;;;;;5040911;28;20087;-71
2021/07/25 07:22:34;;;;;;;27.73;22.30;;;26.40;99.90;;;;;;5046063;28;20049;-72
2021/07/25 07:25:00;;;;;;;25.58;22.95;;;26.60;99.90;;;;;;5028159;28;20479;-72
2021/07/25 07:27:26;;;;;;;23.67;21.17;;;26.70;99.90;;;;;;5037932;28;20514;-73
2021/07/25 07:29:53;;;;;;;23.00;20.50;;;27.00;99.90;;;;;;5032502;28;20471;-73
2021/07/25 07:32:19;;;;;;;23.10;20.75;;;27.10;99.90;;;;;;5035939;28;20057;-72
2021/07/25 07:34:44;;;;;;;21.75;19.55;;;27.10;99.90;;;;;;5035502;28;20049;-72
2021/07/25 07:37:10;;;;;;;22.75;19.88;;;27.20;99.90;;;;;;5029309;28;20065;-72
2021/07/25 07:39:37;;;;;;;22.88;20.67;;;27.40;99.90;;;;;;5039345;28;20487;-73
2021/07/25 07:42:04;;;;;;;25.00;21.90;;;27.30;99.90;;;;;;5033844;28;20048;-73
2021/07/25 07:44:30;;;;;;;24.20;21.38;;;27.40;99.90;;;;;;5045047;28;20076;-73
2021/07/25 07:46:56;;;;;;;23.42;20.88;;;27.30;99.90;;;;;;5034391;28;20029;-73
2021/07/25 07:49:22;;;;;;;23.92;21.23;;;27.30;99.90;;;;;;5030814;28;20056;-73
2021/07/25 07:51:47;;;;;;;22.02;19.73;;;27.40;99.90;;;;;;5050278;28;20039;-73
2021/07/25 07:54:13;;;;;;;22.23;19.95;;;27.50;99.90;;;;;;5045741;28;20443;-73
2021/07/25 07:56:38;;;;;;;21.20;18.92;;;27.40;99.90;;;;;;5032794;28;20372;-73
2021/07/25 07:59:04;;;;;;;22.33;18.98;;;27.40;99.90;;;;;;5041917;28;20056;-74
2021/07/25 08:01:30;;;;;;;22.15;19.85;;;27.60;99.90;;;;;;5026804;28;20540;-73
2021/07/25 08:04:04;;;;;;;19.92;17.95;;;27.60;99.90;;;;;;5028160;28;20045;-73
2021/07/25 08:06:39;;;;;;;21.92;19.77;;;27.80;99.90;;;;;;5041111;28;20139;-73
2021/07/25 08:09:05;;;;;;;20.95;18.85;;;27.80;99.90;;;;;;5032611;28;20054;-73
2021/07/25 08:11:30;;;;;;;22.88;19.15;;;27.90;99.90;;;;;;5035375;28;20094;-73
2021/07/25 08:13:56;;;;;;;19.25;17.27;;;27.90;99.90;;;;;;5041079;28;20144;-73
2021/07/25 08:16:22;;;;;;;20.48;18.52;;;28.00;99.90;;;;;;5032671;28;20038;-73
2021/07/25 08:18:47;;;;;;;20.92;18.85;;;27.90;99.90;;;;;;5037755;28;20041;-73
2021/07/25 08:21:13;;;;;;;20.98;18.73;;;28.00;99.90;;;;;;5031328;28;20037;-72
2021/07/25 08:23:39;;;;;;;20.02;16.60;;;28.00;99.90;;;;;;5037825;28;20041;-73
2021/07/25 08:26:04;;;;;;;19.52;16.33;;;28.10;99.90;;;;;;5042890;28;20364;-73
2021/07/25 08:28:30;;;;;;;16.67;15.00;;;28.10;99.90;;;;;;5032524;28;20061;-73
2021/07/25 08:30:56;;;;;;;16.77;15.02;;;28.20;99.90;;;;;;5027501;28;20559;-73
2021/07/25 08:33:25;;;;;;;18.63;15.45;;;28.30;99.90;;;;;;5064991;28;20037;-73
2021/07/25 08:35:51;;;;;;;16.92;15.32;;;28.40;99.90;;;;;;5041407;28;20048;-73
2021/07/25 08:38:17;;;;;;;16.95;15.30;;;28.50;99.90;;;;;;5029029;28;20049;-73
2021/07/25 08:41:06;;;;;;;15.20;13.70;;;28.60;99.90;;;;;;5031576;28;20041;-72
2021/07/25 08:43:37;;;;;;;17.70;13.43;;;28.50;99.90;;;;;;5043552;28;20164;-73
2021/07/25 08:46:19;;;;;;;16.80;14.18;;;28.60;99.90;;;;;;5035143;28;20032;-74
2021/07/25 08:48:49;;;;;;;14.77;13.23;;;28.70;99.90;;;;;;5023973;28;20448;-74
2021/07/25 08:51:21;;;;;;;14.52;13.15;;;28.70;99.90;;;;;;5044466;28;20079;-74
2021/07/25 08:53:57;;;;;;;16.60;13.70;;;28.80;99.90;;;;;;5037541;28;20034;-74
2021/07/25 08:56:30;;;;;;;13.60;12.30;;;28.90;99.90;;;;;;5036506;28;20494;-74
2021/07/25 08:59:04;;;;;;;15.57;13.30;;;29.10;99.90;;;;;;5025844;28;20045;-74
2021/07/25 09:01:37;;;;;;;14.32;12.88;;;29.10;98.90;;;;;;5028559;28;20034;-74
2021/07/25 09:04:04;;;;;;;15.27;12.10;;;29.20;98.70;;;;;;5038099;28;20037;-74
2021/07/25 09:06:44;;;;;;;13.65;12.20;;;29.20;98.30;;;;;;5029590;28;20120;-74
2021/07/25 09:09:10;;;;;;;15.65;13.18;;;29.30;97.50;;;;;;5045353;28;20491;-74
2021/07/25 09:11:36;;;;;;;13.00;11.80;;;29.40;97.90;;;;;;5031160;28;20076;-74
2021/07/25 09:14:05;;;;;;;16.50;12.75;;;29.50;97.50;;;;;;5041866;28;20042;-74
2021/07/25 09:16:33;;;;;;;14.10;12.77;;;29.60;97.20;;;;;;5036387;28;20134;-73
2021/07/25 09:18:59;;;;;;;14.02;12.55;;;29.50;96.80;;;;;;5039053;28;20041;-74
2021/07/25 09:21:51;;;;;;;15.07;12.73;;;29.50;96.50;;;;;;5020350;28;20459;-75
2021/07/25 09:24:26;;;;;;;16.52;12.68;;;29.60;95.70;;;;;;4994239;28;20119;-74
2021/07/25 09:26:58;;;;;;;13.32;12.02;;;29.60;95.60;;;;;;5016648;28;20120;-74
2021/07/25 09:29:33;;;;;;;13.77;12.57;;;29.80;95.40;;;;;;5018725;28;20058;-74
2021/07/25 09:32:10;;;;;;;15.73;13.80;;;29.90;95.60;;;;;;5029409;28;20060;-75
2021/07/25 09:34:43;;;;;;;15.07;12.60;;;29.90;95.30;;;;;;5025729;28;20041;-74
2021/07/25 09:37:14;;;;;;;15.38;13.55;;;30.00;95.40;;;;;;5021527;28;20038;-74
2021/07/25 09:39:54;;;;;;;13.50;12.13;;;30.00;95.40;;;;;;5015580;28;20046;-75
2021/07/25 09:42:29;;;;;;;14.02;12.02;;;30.00;94.50;;;;;;4999332;28;20041;-75
2021/07/25 09:44:59;;;;;;;13.30;11.98;;;29.90;94.20;;;;;;5014264;28;20039;-75
2021/07/25 09:47:35;;;;;;;13.90;12.57;;;29.90;94.40;;;;;;5021663;28;20117;-75
2021/07/25 09:50:04;;;;;;;13.13;11.85;;;29.90;94.40;;;;;;5010489;28;20049;-76
2021/07/25 09:52:34;;;;;;;12.52;11.40;;;30.00;93.30;;;;;;5024127;28;20552;-75
2021/07/25 09:55:01;;;;;;;13.98;11.50;;;29.90;93.30;;;;;;5016499;28;20037;-74
2021/07/25 09:57:29;;;;;;;13.52;11.68;;;29.90;93.60;;;;;;5028849;28;20120;-74
2021/07/25 10:00:08;;;;;;;13.05;11.75;;;29.90;93.60;;;;;;5023346;28;20088;-74
2021/07/25 10:02:38;;;;;;;13.73;12.45;;;29.90;93.50;;;;;;5050760;28;20132;-75
2021/07/25 10:05:10;;;;;;;12.95;11.65;;;29.90;94.40;;;;;;5013236;28;20053;-75
2021/07/25 10:07:37;;;;;;;13.50;12.30;;;29.90;94.50;;;;;;5023129;28;20092;-74
2021/07/25 10:10:05;;;;;;;15.10;11.60;;;30.10;94.00;;;;;;5020422;28;20049;-75
2021/07/25 10:12:35;;;;;;;13.00;11.80;;;29.90;92.90;;;;;;5036127;28;20037;-75
2021/07/25 10:15:12;;;;;;;11.50;10.40;;;30.10;93.20;;;;;;5013000;28;20045;-75
2021/07/25 10:17:40;;;;;;;11.80;10.77;;;30.10;92.60;;;;;;5015909;28;20125;-75
2021/07/25 10:20:11;;;;;;;11.32;10.23;;;30.30;92.00;;;;;;5047763;28;20091;-75
2021/07/25 10:22:37;;;;;;;11.35;10.18;;;30.20;91.10;;;;;;5032247;28;20140;-75
2021/07/25 10:25:06;;;;;;;11.20;10.10;;;30.20;90.40;;;;;;5029060;28;20078;-76
2021/07/25 10:27:31;;;;;;;10.82;9.50;;;30.10;89.40;;;;;;5026615;28;20077;-75
2021/07/25 10:30:08;;;;;;;10.68;9.63;;;30.30;90.30;;;;;;5020316;28;20061;-75
2021/07/25 10:32:41;;;;;;;10.18;9.18;;;30.50;87.50;;;;;;5044166;28;20049;-75
2021/07/25 10:35:09;;;;;;;10.25;9.13;;;30.70;86.40;;;;;;5024158;28;20037;-76
2021/07/25 10:37:40;;;;;;;15.07;9.93;;;30.70;84.50;;;;;;5041973;28;20032;-75
2021/07/25 10:40:08;;;;;;;11.45;9.60;;;30.70;85.50;;;;;;5030131;28;20047;-76
2021/07/25 10:42:50;;;;;;;10.57;9.07;;;30.80;84.70;;;;;;5032300;28;20108;-77
2021/07/25 10:45:16;;;;;;;10.38;9.25;;;30.90;82.00;;;;;;5032563;28;20075;-77
2021/07/25 10:47:44;;;;;;;10.15;8.95;;;31.00;83.20;;;;;;5028111;28;20045;-70
2021/07/25 10:50:16;;;;;;;10.00;9.05;;;31.20;82.40;;;;;;5028189;28;20051;-76
2021/07/25 10:52:56;;;;;;;10.32;9.32;;;31.40;81.40;;;;;;5022652;28;20037;-70
2021/07/25 10:55:34;;;;;;;10.82;9.82;;;31.30;80.50;;;;;;5024785;28;20481;-76
2021/07/25 10:58:02;;;;;;;12.13;9.95;;;31.30;80.10;;;;;;5027234;28;20041;-77
2021/07/25 11:00:43;;;;;;;10.60;9.45;;;31.30;81.60;;;;;;5037524;28;20032;-77
2021/07/25 11:03:11;;;;;;;12.80;9.57;;;31.60;80.20;;;;;;5026686;28;20043;-77
2021/07/25 11:06:09;;;;;;;9.40;8.48;;;31.80;80.20;;;;;;5012138;28;20087;-77
2021/07/25 11:08:43;;;;;;;10.23;9.13;;;32.00;76.30;;;;;;4992405;28;20084;-77
2021/07/25 11:11:35;;;;;;;10.18;8.45;;;32.30;75.70;;;;;;5042958;28;20029;-78
2021/07/25 11:14:02;;;;;;;17.00;8.90;;;32.00;73.80;;;;;;5020200;28;22976;-77
2021/07/25 11:16:29;;;;;;;10.82;9.05;;;31.80;76.60;;;;;;5036289;28;20407;-77
2021/07/25 11:18:56;;;;;;;9.88;8.88;;;32.30;76.10;;;;;;5026762;28;20037;-77
2021/07/25 11:21:41;;;;;;;9.52;8.63;;;32.90;72.70;;;;;;5026641;28;20079;-77
2021/07/25 11:24:19;;;;;;;9.40;8.50;;;33.50;69.60;;;;;;5039817;28;20411;-78
2021/07/25 11:26:52;;;;;;;9.73;8.75;;;33.50;68.30;;;;;;5028326;28;20056;-77
2021/07/25 11:29:32;;;;;;;12.25;9.68;;;32.70;71.00;;;;;;5038916;28;20053;-77
2021/07/25 11:31:59;;;;;;;9.60;8.60;;;32.80;70.90;;;;;;5050181;28;20033;-78
2021/07/25 11:34:28;;;;;;;11.40;8.25;;;33.00;69.00;;;;;;5034905;28;20042;-77
2021/07/25 11:36:56;;;;;;;8.90;8.10;;;33.20;67.70;;;;;;5030323;28;20033;-79
2021/07/25 11:39:22;;;;;;;10.70;8.68;;;33.90;65.70;;;;;;5033759;28;20041;-77
2021/07/25 11:41:48;;;;;;;9.13;8.23;;;33.80;65.20;;;;;;5035148;28;20032;-77
2021/07/25 11:44:24;;;;;;;9.38;8.48;;;33.20;65.90;;;;;;5036450;28;20094;-78
2021/07/25 11:47:14;;;;;;;10.77;9.15;;;33.00;66.20;;;;;;5032756;28;20041;-78
2021/07/25 11:49:40;;;;;;;19.38;8.30;;;32.60;66.00;;;;;;5034192;28;20077;-78
2021/07/25 11:52:10;;;;;;;83.72;13.32;;;32.40;68.30;;;;;;5042566;28;20091;-78
2021/07/25 11:54:38;;;;;;;11.82;8.88;;;32.40;67.40;;;;;;5027123;28;20099;-77
2021/07/25 11:57:12;;;;;;;12.32;8.15;;;32.40;67.20;;;;;;5036983;28;20422;-78
2021/07/25 11:59:58;;;;;;;9.07;8.15;;;32.50;66.10;;;;;;5040965;28;20041;-78
2021/07/25 12:02:31;;;;;;;10.20;8.80;;;32.60;64.90;;;;;;5027586;28;20044;-77
2021/07/25 12:04:58;;;;;;;7.97;7.22;;;32.80;65.00;;;;;;5031935;28;20033;-78
2021/07/25 12:07:34;;;;;;;8.35;7.55;;;32.90;64.40;;;;;;5038683;28;20047;-77
2021/07/25 12:10:00;;;;;;;12.30;7.97;;;32.90;62.70;;;;;;5037402;28;20065;-77
2021/07/25 12:12:36;;;;;;;9.40;8.50;;;32.60;63.70;;;;;;5040569;28;20029;-77
2021/07/25 12:15:04;;;;;;;10.32;8.60;;;32.40;65.30;;;;;;5035965;28;20367;-77
2021/07/25 12:17:56;;;;;;;11.02;9.20;;;32.70;64.80;;;;;;5072060;28;20451;-76
2021/07/25 12:20:28;;;;;;;10.98;9.80;;;34.30;61.20;;;;;;4983396;28;20038;-77
2021/07/25 12:22:56;;;;;;;10.50;9.40;;;35.60;57.20;;;;;;5030537;28;20045;-78
2021/07/25 12:25:27;;;;;;;11.15;9.07;;;36.60;55.60;;;;;;5032384;28;20517;-77
2021/07/25 12:28:09;;;;;;;9.70;8.80;;;36.90;54.30;;;;;;5045944;28;20040;-77
2021/07/25 12:30:46;;;;;;;12.20;8.75;;;36.80;51.90;;;;;;5039144;28;20033;-77
2021/07/25 12:33:14;;;;;;;9.98;8.70;;;37.30;50.30;;;;;;5041466;28;20033;-71
2021/07/25 12:35:46;;;;;;;10.90;9.65;;;37.30;50.00;;;;;;5018052;28;20435;-77
2021/07/25 12:38:15;;;;;;;8.55;7.85;;;36.30;50.30;;;;;;5036291;28;20029;-74
2021/07/25 12:40:56;;;;;;;7.45;6.78;;;35.60;52.30;;;;;;5029430;28;20037;-77